North Carver, Massachusetts
Current Conditions -  °F | °C
As of 5:52 PM on Saturday 25 Oct 2014 (Local Time) from KPYM Reporting Station
Clear Clear  
Wind Chill: 59°   Ceiling: Unl
Heat Index: 59°   Visibility: 10mi
Dew Point: 43°   Wind: 7mph
Humidity: 55%   Direction: 220°SW
Pressure: 29.59"   Gusts: NA
Location:  41.92°N, 70.8°W
Report Text: KPYM 252152Z AUTO 22006KT 10SM CLR 15/06 A2959 RMK AO2 SLP021 T01500061
Loading
Personal Weather Stations






























Interactive Weather Map
Tropical Storm Tracking
New forecast layout! Learn more

10-Day Weather Forecast

Advertisements
Track Severe Weather on mobile